Time;durP1;ratioP1;P1;durP2;ratioP2;P2;SDS_P1;SDS_P2;PMS_P1;PMS_P2;Temp;Humidity;BMP_temperature;BMP_pressure;BME280_temperature;BME280_humidity;BME280_pressure;Samples;Min_cycle;Max_cycle;Signal;HPM_P1;HPM_P2
2021/06/17 00:00:14;;;;;;;3.47;2.10;;;;;;;16.32;55.80;101357.34;5109256;28;20199;-76
2021/06/17 00:02:42;;;;;;;2.60;1.97;;;;;;;16.33;55.62;101359.06;5108778;28;20219;-76
2021/06/17 00:05:12;;;;;;;7.80;2.00;;;;;;;16.25;56.20;101350.72;5108816;28;20208;-75
2021/06/17 00:07:42;;;;;;;3.33;1.80;;;;;;;16.27;56.35;101364.13;5108950;28;20208;-76
2021/06/17 00:10:14;;;;;;;2.90;2.10;;;;;;;16.25;56.52;101371.53;5108361;28;20200;-76
2021/06/17 00:12:44;;;;;;;4.20;1.90;;;;;;;16.25;56.77;101376.97;5108743;28;20291;-76
2021/06/17 00:15:13;;;;;;;5.30;1.90;;;;;;;16.22;56.97;101372.63;5108495;28;20232;-76
2021/06/17 00:17:43;;;;;;;3.80;1.70;;;;;;;16.21;56.41;101372.75;5108499;28;20245;-76
2021/06/17 00:20:13;;;;;;;3.90;2.00;;;;;;;16.15;56.89;101371.41;5108769;28;20233;-75
2021/06/17 00:22:41;;;;;;;2.77;1.87;;;;;;;16.20;56.72;101380.00;5108233;28;20218;-76
2021/06/17 00:25:10;;;;;;;3.40;1.87;;;;;;;16.12;55.93;101372.50;5108658;28;20265;-76
2021/06/17 00:27:39;;;;;;;5.70;1.80;;;;;;;16.11;56.99;101378.06;5108346;28;20267;-76
2021/06/17 00:30:12;;;;;;;2.87;1.67;;;;;;;16.08;57.47;101383.72;5106324;28;20210;-75
2021/06/17 00:32:40;;;;;;;3.27;1.87;;;;;;;15.92;57.03;101369.69;5107920;28;20199;-76
2021/06/17 00:35:10;;;;;;;3.27;1.90;;;;;;;16.03;57.21;101385.94;5124308;27;20196;-75
2021/06/17 00:37:39;;;;;;;2.60;1.83;;;;;;;15.96;57.74;101392.84;5107835;28;20895;-76
2021/06/17 00:40:09;;;;;;;2.20;1.70;;;;;;;15.89;58.26;101394.31;5106072;28;20662;-76
2021/06/17 00:42:38;;;;;;;5.67;2.03;;;;;;;15.80;58.35;101383.22;5106875;28;20603;-76
2021/06/17 00:45:12;;;;;;;2.53;2.17;;;;;;;15.80;57.62;101385.94;5106056;28;20200;-75
2021/06/17 00:47:41;;;;;;;3.33;2.00;;;;;;;15.77;57.43;101383.47;5107710;28;20661;-77
2021/06/17 00:50:11;;;;;;;3.23;2.30;;;;;;;15.75;57.79;101390.84;5104555;28;20678;-76
2021/06/17 00:52:39;;;;;;;3.33;2.10;;;;;;;15.72;57.27;101399.22;5107611;28;20203;-76
2021/06/17 00:55:08;;;;;;;2.90;2.00;;;;;;;15.69;57.25;101396.78;5108192;28;20244;-76
2021/06/17 00:57:37;;;;;;;4.13;1.87;;;;;;;15.65;57.49;101391.72;5108242;28;20214;-77
2021/06/17 01:00:07;;;;;;;3.97;1.90;;;;;;;15.61;57.70;101390.19;5105300;28;20273;-77
2021/06/17 01:02:38;;;;;;;4.17;1.93;;;;;;;15.56;58.01;101401.38;5105379;28;20515;-77
2021/06/17 01:05:07;;;;;;;5.60;1.97;;;;;;;15.46;57.08;101385.00;5106403;28;20199;-77
2021/06/17 01:07:41;;;;;;;2.83;1.87;;;;;;;15.34;57.84;101368.84;5108561;28;20245;-77
2021/06/17 01:10:16;;;;;;;4.07;2.00;;;;;;;15.22;58.78;101374.22;5121314;27;20196;-77
2021/06/17 01:12:54;;;;;;;4.10;2.10;;;;;;;15.32;58.44;101406.00;5106689;28;20593;-76
2021/06/17 01:15:23;;;;;;;3.63;2.10;;;;;;;15.27;58.46;101394.63;5107642;28;20755;-77
2021/06/17 01:17:59;;;;;;;4.03;1.73;;;;;;;15.21;58.83;101399.56;5107375;28;20215;-77
2021/06/17 01:20:32;;;;;;;4.00;1.80;;;;;;;15.01;58.18;101370.47;5105502;28;20688;-77
2021/06/17 01:23:10;;;;;;;3.93;1.90;;;;;;;15.16;58.19;101399.03;5104724;28;20717;-77
2021/06/17 01:25:54;;;;;;;2.80;2.07;;;;;;;15.17;58.57;101411.59;5105702;28;20253;-76
2021/06/17 01:28:26;;;;;;;3.47;2.10;;;;;;;15.16;58.08;101398.19;5106803;28;20260;-76
2021/06/17 01:30:58;;;;;;;2.63;1.90;;;;;;;15.16;58.40;101406.28;5107570;28;20539;-76
2021/06/17 01:33:30;;;;;;;4.33;2.00;;;;;;;15.17;57.31;101405.31;5104854;28;20252;-76
2021/06/17 01:36:02;;;;;;;4.47;2.03;;;;;;;15.16;57.76;101401.75;5107494;28;20245;-77
2021/06/17 01:38:32;;;;;;;6.87;2.00;;;;;;;15.11;57.90;101389.56;5103994;28;20284;-76
2021/06/17 01:41:03;;;;;;;5.63;2.00;;;;;;;15.15;58.44;101393.75;5108852;28;20223;-76
2021/06/17 01:43:35;;;;;;;5.07;2.17;;;;;;;15.09;58.78;101405.91;5107682;28;20985;-75
2021/06/17 01:46:04;;;;;;;7.90;2.10;;;;;;;14.89;59.84;101380.34;5108769;28;20533;-75
2021/06/17 01:48:33;;;;;;;2.23;1.90;;;;;;;14.96;59.24;101396.13;5107093;28;20553;-75
2021/06/17 01:51:02;;;;;;;3.67;2.20;;;;;;;14.94;59.37;101404.34;5108440;28;20206;-75
2021/06/17 01:53:31;;;;;;;2.30;1.90;;;;;;;14.84;60.13;101398.78;5108091;28;20203;-75
2021/06/17 01:56:00;;;;;;;4.07;2.13;;;;;;;14.85;59.89;101413.16;5108858;28;20587;-75
2021/06/17 01:58:30;;;;;;;8.73;2.40;;;;;;;14.78;60.01;101418.19;5106497;28;20582;-76
2021/06/17 02:01:03;;;;;;;4.13;2.30;;;;;;;14.77;59.94;101407.47;5108194;28;20207;-75
2021/06/17 02:03:33;;;;;;;2.97;2.03;;;;;;;14.76;59.48;101409.31;5101223;28;20489;-76
2021/06/17 02:06:02;;;;;;;3.73;1.97;;;;;;;14.75;59.93;101404.03;5107901;28;20695;-75
2021/06/17 02:08:30;;;;;;;4.97;2.10;;;;;;;14.80;58.75;101412.66;5106573;28;20679;-75
2021/06/17 02:10:59;;;;;;;4.10;2.30;;;;;;;14.79;58.98;101410.94;5104294;28;20199;-75
2021/06/17 02:13:28;;;;;;;3.67;2.30;;;;;;;14.74;59.01;101397.75;5103594;28;20190;-75
2021/06/17 02:15:58;;;;;;;5.57;2.17;;;;;;;14.76;59.72;101408.44;5104504;28;20918;-75
2021/06/17 02:18:29;;;;;;;4.77;2.10;;;;;;;14.44;59.55;101351.38;5104542;28;20199;-75
2021/06/17 02:20:57;;;;;;;5.80;2.27;;;;;;;14.78;59.88;101411.91;5107932;28;20208;-75
2021/06/17 02:23:30;;;;;;;7.90;2.70;;;;;;;14.36;59.70;101343.78;5107780;28;20295;-75
2021/06/17 02:26:00;;;;;;;14.87;2.83;;;;;;;14.42;60.67;101369.50;5109644;28;20192;-75
2021/06/17 02:28:33;;;;;;;6.77;3.33;;;;;;;14.63;61.28;101416.59;5110645;28;20607;-75
2021/06/17 02:31:07;;;;;;;5.53;2.83;;;;;;;14.68;61.00;101418.94;5104424;28;20210;-75
2021/06/17 02:33:38;;;;;;;4.30;2.60;;;;;;;14.95;62.21;101402.50;5109468;28;20217;-75
2021/06/17 02:36:08;;;;;;;3.67;2.00;;;;;;;15.47;62.36;101412.91;5103923;28;20266;-75
2021/06/17 02:38:39;;;;;;;3.90;1.87;;;;;;;16.13;62.38;101408.59;5111308;28;20211;-75
2021/06/17 02:41:10;;;;;;;8.33;2.70;;;;;;;16.58;60.90;101424.84;5104406;28;20196;-76
2021/06/17 02:43:41;;;;;;;2.40;2.00;;;;;;;16.75;59.68;101417.06;5110018;28;20216;-75
2021/06/17 02:46:09;;;;;;;2.63;1.80;;;;;;;16.82;59.62;101414.69;5098527;28;20201;-76
2021/06/17 02:48:39;;;;;;;3.13;1.87;;;;;;;16.84;59.19;101417.31;5096665;28;20200;-76
2021/06/17 02:51:07;;;;;;;1.80;1.60;;;;;;;16.82;59.21;101413.84;5109968;28;20192;-76
2021/06/17 02:53:35;;;;;;;7.30;2.13;;;;;;;16.65;59.14;101407.06;5108522;28;20184;-76
2021/06/17 02:56:11;;;;;;;3.73;1.87;;;;;;;16.59;60.46;101413.00;5109377;28;20196;-76
2021/06/17 02:58:54;;;;;;;3.83;1.90;;;;;;;16.97;59.85;101423.41;5108567;28;20566;-76
2021/06/17 03:01:31;;;;;;;3.17;2.13;;;;;;;17.52;59.63;101418.75;5109905;28;20596;-76
2021/06/17 03:04:10;;;;;;;2.70;1.80;;;;;;;18.05;57.66;101422.22;5101445;28;20588;-76
2021/06/17 03:06:42;;;;;;;2.73;1.93;;;;;;;18.10;56.73;101387.34;5109887;28;20192;-76
2021/06/17 03:09:14;;;;;;;2.53;1.70;;;;;;;18.29;56.65;101417.31;5108930;28;20219;-77
2021/06/17 03:11:45;;;;;;;3.57;2.10;;;;;;;18.40;56.64;101416.38;5105036;27;20558;-76
2021/06/17 03:14:17;;;;;;;2.97;1.80;;;;;;;18.58;56.95;101420.13;5104261;28;20326;-76
2021/06/17 03:16:50;;;;;;;2.30;1.70;;;;;;;18.59;56.84;101402.81;5108706;28;20240;-77
2021/06/17 03:19:21;;;;;;;4.50;2.13;;;;;;;18.92;56.22;101422.53;5109051;28;20279;-76
2021/06/17 03:21:52;;;;;;;6.37;1.87;;;;;;;18.82;55.34;101403.47;5096954;28;20685;-76
2021/06/17 03:24:23;;;;;;;3.40;2.00;;;;;;;18.77;55.88;101413.94;5108530;28;20223;-76
2021/06/17 03:26:55;;;;;;;5.13;2.10;;;;;;;18.35;55.90;101379.69;5109405;27;20658;-76
2021/06/17 03:29:26;;;;;;;2.37;1.80;;;;;;;18.50;56.36;101419.13;5109393;28;20256;-76
2021/06/17 03:31:57;;;;;;;2.83;2.00;;;;;;;18.42;57.01;101421.69;5107079;28;20200;-76
2021/06/17 03:34:28;;;;;;;4.30;2.00;;;;;;;18.17;57.16;101417.56;5098556;28;20211;-76
2021/06/17 03:36:58;;;;;;;2.67;2.10;;;;;;;17.92;58.01;101422.44;5107176;27;20196;-76
2021/06/17 03:39:28;;;;;;;2.90;1.83;;;;;;;17.90;58.34;101415.44;5102405;28;20188;-76
2021/06/17 03:41:57;;;;;;;2.57;2.03;;;;;;;17.78;58.29;101408.38;5108089;28;20199;-76
2021/06/17 03:44:26;;;;;;;2.50;1.80;;;;;;;17.71;58.25;101412.59;5108675;28;20713;-77
2021/06/17 03:46:56;;;;;;;3.03;2.00;;;;;;;17.75;58.26;101409.47;5108465;28;20200;-76
2021/06/17 03:49:25;;;;;;;2.70;1.90;;;;;;;17.78;58.05;101413.81;5108440;28;20221;-76
2021/06/17 03:51:57;;;;;;;3.87;1.90;;;;;;;17.48;58.55;101352.09;5108339;28;20556;-77
2021/06/17 03:54:27;;;;;;;4.30;2.23;;;;;;;17.87;58.55;101410.25;5107760;28;20581;-77
2021/06/17 03:56:57;;;;;;;4.20;2.13;;;;;;;17.82;58.82;101410.69;5108976;28;20299;-76
2021/06/17 03:59:30;;;;;;;3.30;2.07;;;;;;;17.79;58.75;101405.50;5109645;28;20277;-76
2021/06/17 04:01:58;;;;;;;3.57;2.20;;;;;;;17.81;59.23;101419.81;5108604;28;20281;-77
2021/06/17 04:04:27;;;;;;;5.53;2.57;;;;;;;17.19;59.99;101333.75;5107892;28;20219;-76
2021/06/17 04:07:01;;;;;;;3.33;2.23;;;;;;;17.51;61.13;101411.59;5109345;28;20236;-76
2021/06/17 04:09:32;;;;;;;3.13;2.17;;;;;;;17.51;60.81;101414.31;5108692;28;20196;-77
2021/06/17 04:12:04;;;;;;;5.27;2.33;;;;;;;17.49;60.77;101387.28;5104965;28;20526;-77
2021/06/17 04:14:36;;;;;;;7.67;2.40;;;;;;;17.54;61.02;101385.00;5102505;27;20200;-76
2021/06/17 04:17:05;;;;;;;4.10;2.20;;;;;;;17.60;61.27;101406.22;5098360;28;20686;-76
2021/06/17 04:19:37;;;;;;;3.37;2.00;;;;;;;17.48;60.95;101388.28;5107834;28;20188;-76
2021/06/17 04:22:09;;;;;;;5.90;2.33;;;;;;;17.62;61.08;101406.94;5107988;28;20581;-76
2021/06/17 04:24:42;;;;;;;5.30;2.20;;;;;;;17.71;61.24;101418.03;5099439;28;20237;-77
2021/06/17 04:27:11;;;;;;;2.60;2.00;;;;;;;17.72;61.84;101426.03;5108245;28;20208;-76
2021/06/17 04:29:40;;;;;;;2.20;1.80;;;;;;;17.79;61.41;101420.97;5100903;27;20457;-75
2021/06/17 04:32:12;;;;;;;4.70;2.10;;;;;;;17.89;60.99;101420.00;5101361;28;20219;-75
2021/06/17 04:34:42;;;;;;;6.03;2.30;;;;;;;17.82;61.16;101399.81;5103342;28;20675;-76
2021/06/17 04:37:14;;;;;;;2.77;2.07;;;;;;;17.77;60.80;101379.47;5103105;28;20195;-76
2021/06/17 04:39:43;;;;;;;2.90;2.43;;;;;;;18.09;61.25;101423.69;5104188;28;20678;-76
2021/06/17 04:42:13;;;;;;;8.07;2.00;;;;;;;18.14;60.45;101432.31;5104615;28;20612;-75
2021/06/17 04:44:43;;;;;;;6.33;2.47;;;;;;;18.25;60.24;101420.47;5102479;28;20461;-75
2021/06/17 04:47:14;;;;;;;3.50;2.30;;;;;;;18.34;60.57;101421.47;5101544;28;20523;-74
2021/06/17 04:49:43;;;;;;;3.27;2.00;;;;;;;18.46;59.80;101432.16;5118344;27;20207;-76
2021/06/17 04:52:20;;;;;;;3.70;2.10;;;;;;;18.56;59.47;101426.72;5103244;28;20204;-75
2021/06/17 04:54:48;;;;;;;3.33;2.30;;;;;;;18.76;58.42;101428.53;5105299;28;20191;-74
2021/06/17 04:57:17;;;;;;;3.67;1.90;;;;;;;18.92;58.54;101425.25;5104606;28;20196;-73
2021/06/17 04:59:45;;;;;;;4.20;2.20;;;;;;;19.08;58.27;101428.28;5103280;28;20198;-75
2021/06/17 05:02:13;;;;;;;5.67;2.00;;;;;;;19.37;58.23;101428.31;5105432;28;20200;-75
2021/06/17 05:04:41;;;;;;;7.00;2.37;;;;;;;19.62;58.09;101437.78;5105990;28;20220;-75
2021/06/17 05:07:25;;;;;;;2.20;1.90;;;;;;;19.87;57.67;101435.41;5104139;28;20204;-76
2021/06/17 05:12:40;;;;;;;2.10;1.90;;;;;;;20.38;55.96;101444.00;5106860;28;20188;-76
2021/06/17 05:15:09;;;;;;;2.30;2.10;;;;;;;20.63;55.62;101447.94;5107067;28;20703;-75
2021/06/17 05:17:38;;;;;;;2.20;1.90;;;;;;;20.87;54.28;101454.72;5105974;28;20203;-75
2021/06/17 05:20:07;;;;;;;2.00;1.80;;;;;;;21.13;52.67;101452.09;5108162;28;20244;-75
2021/06/17 05:22:36;;;;;;;3.03;2.03;;;;;;;21.37;51.64;101457.81;5107506;28;20189;-75
2021/06/17 05:25:06;;;;;;;3.13;2.10;;;;;;;21.48;53.71;101448.53;5106536;28;20698;-75
2021/06/17 05:27:35;;;;;;;2.73;2.10;;;;;;;21.78;52.72;101453.56;5102344;28;20812;-74
2021/06/17 05:30:03;;;;;;;4.70;2.10;;;;;;;21.98;53.54;101449.59;5104997;28;20204;-74
2021/06/17 05:32:32;;;;;;;3.97;2.20;;;;;;;22.21;53.66;101451.84;5104365;28;20686;-75
2021/06/17 05:35:00;;;;;;;3.30;2.20;;;;;;;22.49;52.64;101449.75;5106476;28;20188;-75
2021/06/17 05:37:28;;;;;;;3.77;2.13;;;;;;;22.78;51.63;101449.38;5105226;28;20207;-75
2021/06/17 05:39:56;;;;;;;2.53;1.70;;;;;;;22.94;50.74;101446.69;5106827;28;20199;-75
2021/06/17 05:42:25;;;;;;;4.80;2.00;;;;;;;22.82;50.15;101451.63;5106461;28;20207;-75
2021/06/17 05:44:53;;;;;;;3.60;1.80;;;;;;;22.87;49.21;101454.72;5105839;28;20215;-75
2021/06/17 05:47:21;;;;;;;3.23;1.83;;;;;;;22.93;48.35;101453.19;5102070;28;20196;-75
2021/06/17 05:49:50;;;;;;;4.40;1.97;;;;;;;22.88;48.35;101450.09;5103775;28;20435;-75
2021/06/17 05:52:18;;;;;;;4.73;2.30;;;;;;;22.75;47.89;101458.78;5105012;28;20202;-75
2021/06/17 05:54:46;;;;;;;4.80;2.13;;;;;;;22.93;47.95;101453.19;5103436;28;20218;-75
2021/06/17 05:57:14;;;;;;;2.80;1.77;;;;;;;23.33;47.25;101457.06;5104254;28;20208;-75
2021/06/17 05:59:43;;;;;;;1.83;1.73;;;;;;;23.28;46.01;101453.97;5107375;28;20282;-75
2021/06/17 06:02:11;;;;;;;2.90;1.90;;;;;;;23.43;46.31;101408.41;5102983;28;20216;-75
2021/06/17 06:04:40;;;;;;;2.67;2.03;;;;;;;24.09;45.43;101438.34;5100669;28;20676;-74
2021/06/17 06:07:08;;;;;;;3.83;1.63;;;;;;;24.52;45.30;101454.56;5109908;28;20192;-75
2021/06/17 06:09:36;;;;;;;5.90;1.80;;;;;;;24.61;44.79;101459.00;5110011;28;20199;-75
2021/06/17 06:12:06;;;;;;;2.80;2.10;;;;;;;24.73;43.62;101452.06;5111142;27;20219;-75
2021/06/17 06:14:34;;;;;;;4.82;2.03;;;;;;;24.96;43.89;101433.75;5103775;28;20250;-74
2021/06/17 06:17:05;;;;;;;2.75;1.80;;;;;;;25.06;43.48;101453.63;5109913;28;20199;-75
2021/06/17 06:19:35;;;;;;;2.20;1.80;;;;;;;25.07;43.67;101438.84;5109171;28;20192;-75
2021/06/17 06:22:05;;;;;;;2.50;1.80;;;;;;;25.29;43.91;101458.31;5109606;28;20722;-72
2021/06/17 06:24:34;;;;;;;3.60;2.15;;;;;;;25.58;43.56;101452.91;5104462;28;20686;-72
2021/06/17 06:27:04;;;;;;;2.03;1.83;;;;;;;25.91;42.55;101452.66;5105833;28;20203;-73
2021/06/17 06:29:32;;;;;;;3.72;1.90;;;;;;;25.62;42.10;101412.97;5105790;28;20608;-73
2021/06/17 06:32:02;;;;;;;3.83;2.03;;;;;;;25.90;42.30;101450.94;5105360;28;20685;-73
2021/06/17 06:34:31;;;;;;;6.65;1.83;;;;;;;25.95;42.49;101442.97;5108638;28;20265;-73
2021/06/17 06:36:59;;;;;;;1.92;1.73;;;;;;;25.88;42.01;101453.03;5109602;28;20689;-73
2021/06/17 06:39:27;;;;;;;4.55;1.83;;;;;;;25.82;42.38;101453.78;5110287;28;20200;-73
2021/06/17 06:41:55;;;;;;;5.05;1.95;;;;;;;25.68;43.03;101459.03;5110966;28;20192;-73
2021/06/17 06:44:23;;;;;;;2.90;1.90;;;;;;;25.35;43.31;101447.41;5108833;28;20210;-73
2021/06/17 06:46:53;;;;;;;3.38;2.03;;;;;;;25.69;43.31;101465.41;5109887;28;20683;-73
2021/06/17 06:49:22;;;;;;;5.13;2.05;;;;;;;25.61;43.98;101463.56;5103435;28;20570;-73
2021/06/17 06:51:51;;;;;;;4.43;2.13;;;;;;;25.81;44.04;101463.94;5110982;28;20200;-73
2021/06/17 06:54:20;;;;;;;3.08;2.10;;;;;;;25.83;43.76;101458.25;5109877;28;20206;-73
2021/06/17 06:56:48;;;;;;;4.75;2.10;;;;;;;25.89;43.60;101450.09;5109022;28;20670;-73
2021/06/17 06:59:17;;;;;;;6.13;2.20;;;;;;;25.78;44.80;101430.44;5109784;28;20270;-74
2021/06/17 07:01:46;;;;;;;5.15;1.80;;;;;;;25.83;44.21;101450.00;5110175;28;20631;-74
2021/06/17 07:04:14;;;;;;;2.15;1.88;;;;;;;26.31;43.80;101440.34;5110987;28;20214;-74
2021/06/17 07:06:42;;;;;;;2.47;2.00;;;;;;;26.21;43.80;101437.88;5109148;27;20220;-74
2021/06/17 07:09:12;;;;;;;3.40;2.10;;;;;;;26.18;44.52;101442.91;5110136;28;20283;-73
2021/06/17 07:11:40;;;;;;;1.92;1.73;;;;;;;26.55;43.88;101431.81;5107665;28;20235;-73
2021/06/17 07:14:08;;;;;;;1.55;1.45;;;;;;;27.17;42.70;101433.22;5106923;28;20219;-73
2021/06/17 07:16:36;;;;;;;3.63;1.90;;;;;;;27.62;42.44;101437.53;5110633;28;20724;-73
2021/06/17 07:19:06;;;;;;;4.78;2.00;;;;;;;27.34;42.65;101420.91;5110045;28;20199;-73
2021/06/17 07:21:35;;;;;;;2.85;1.90;;;;;;;27.11;42.46;101423.00;5109630;28;20223;-73
2021/06/17 07:24:04;;;;;;;2.40;2.20;;;;;;;27.28;42.60;101441.00;5109583;28;20200;-73
2021/06/17 07:26:34;;;;;;;2.38;1.85;;;;;;;27.43;42.59;101432.66;5110617;27;20219;-72
2021/06/17 07:29:05;;;;;;;7.70;1.67;;;;;;;28.09;40.00;101444.28;5125293;27;20239;-73
2021/06/17 07:31:34;;;;;;;3.35;1.80;;;;;;;28.62;38.96;101439.97;5109751;28;20200;-73
2021/06/17 07:34:03;;;;;;;3.85;1.98;;;;;;;28.90;39.10;101442.66;5110449;28;20245;-72
2021/06/17 07:36:31;;;;;;;7.10;1.90;;;;;;;28.59;39.96;101389.75;5108886;28;20196;-72
2021/06/17 07:39:02;;;;;;;3.83;1.75;;;;;;;29.36;39.48;101450.22;5108005;28;20192;-74
2021/06/17 07:41:31;;;;;;;2.22;1.90;;;;;;;29.73;38.15;101436.91;5110384;28;20192;-73
2021/06/17 07:44:01;;;;;;;2.55;1.88;;;;;;;29.82;37.22;101435.59;5108779;28;20200;-73
2021/06/17 07:46:29;;;;;;;2.67;2.03;;;;;;;30.03;37.44;101437.34;5109077;28;20219;-74
2021/06/17 07:48:58;;;;;;;2.78;1.85;;;;;;;29.50;37.07;101440.06;5100973;28;20184;-73
2021/06/17 07:51:26;;;;;;;5.45;2.15;;;;;;;29.90;36.89;101427.91;5109945;28;20195;-74
2021/06/17 07:53:59;;;;;;;3.70;1.83;;;;;;;29.91;36.28;101432.38;5101990;28;20336;-73
2021/06/17 07:56:27;;;;;;;4.95;1.80;;;;;;;29.99;36.89;101437.69;5108514;28;20614;-73
2021/06/17 07:58:55;;;;;;;2.97;1.40;;;;;;;30.27;36.41;101433.84;5108567;28;20415;-74
2021/06/17 08:01:26;;;;;;;3.33;1.92;;;;;;;29.60;35.23;101424.72;5110043;28;20203;-74
2021/06/17 08:03:55;;;;;;;2.50;1.92;;;;;;;29.19;36.28;101427.63;5108356;28;20211;-74
2021/06/17 08:06:23;;;;;;;2.05;1.80;;;;;;;28.88;37.06;101432.88;5108707;28;20212;-74
2021/06/17 08:08:51;;;;;;;1.98;1.70;;;;;;;28.66;37.95;101421.88;5107514;28;20215;-73
2021/06/17 08:11:19;;;;;;;2.47;1.80;;;;;;;29.14;37.46;101424.66;5100726;28;20193;-74
2021/06/17 08:14:03;;;;;;;2.10;1.73;;;;;;;29.63;36.27;101429.84;5104355;28;20203;-74
2021/06/17 08:16:32;;;;;;;2.63;1.60;;;;;;;29.49;36.29;101425.38;5109491;28;20269;-73
2021/06/17 08:19:00;;;;;;;3.72;1.77;;;;;;;29.18;35.88;101389.94;5094894;28;20593;-74
2021/06/17 08:21:30;;;;;;;2.33;1.70;;;;;;;29.30;36.42;101417.84;5090434;28;20193;-75
2021/06/17 08:23:58;;;;;;;1.60;1.50;;;;;;;29.01;36.51;101422.69;5098130;28;20234;-74
2021/06/17 08:26:27;;;;;;;4.38;1.67;;;;;;;28.86;38.00;101415.63;5108347;28;20470;-74
2021/06/17 08:28:55;;;;;;;1.83;1.65;;;;;;;28.85;36.85;101428.59;5108917;28;20199;-74
2021/06/17 08:31:23;;;;;;;2.05;1.70;;;;;;;29.02;37.52;101416.09;5108327;28;20196;-73
2021/06/17 08:33:53;;;;;;;1.60;1.50;;;;;;;29.16;37.47;101433.59;5109119;28;20278;-73
2021/06/17 08:36:21;;;;;;;1.65;1.33;;;;;;;29.46;36.34;101424.94;5108047;28;20196;-73
2021/06/17 08:38:49;;;;;;;2.40;1.33;;;;;;;29.89;34.45;101409.59;5106145;28;20214;-73
2021/06/17 08:41:18;;;;;;;3.08;1.23;;;;;;;30.37;33.06;101428.72;5104846;28;20695;-73
2021/06/17 08:43:51;;;;;;;2.28;1.30;;;;;;;30.40;30.50;101427.44;5108106;28;20192;-73
2021/06/17 08:46:20;;;;;;;1.48;1.38;;;;;;;30.40;32.56;101386.69;5107756;28;20208;-74
2021/06/17 08:48:49;;;;;;;3.70;1.17;;;;;;;30.55;31.98;101426.09;5108526;28;20195;-74
2021/06/17 08:51:20;;;;;;;2.55;1.20;;;;;;;30.73;32.37;101427.34;5100888;28;20245;-74
2021/06/17 08:53:50;;;;;;;2.88;1.30;;;;;;;31.21;32.37;101424.97;5107293;28;20196;-74
2021/06/17 08:56:18;;;;;;;1.80;1.30;;;;;;;30.56;31.64;101425.03;5107506;28;20219;-74
2021/06/17 08:58:46;;;;;;;1.58;1.23;;;;;;;30.56;32.85;101427.78;5107146;28;20213;-74
2021/06/17 09:01:16;;;;;;;2.15;1.50;;;;;;;30.06;31.52;101423.03;5108431;28;20203;-74
2021/06/17 09:03:46;;;;;;;1.48;1.10;;;;;;;29.89;31.38;101420.69;5105863;28;20204;-73
2021/06/17 09:06:17;;;;;;;1.42;1.35;;;;;;;29.85;32.41;101380.63;5107920;28;20204;-73
2021/06/17 09:08:58;;;;;;;1.30;1.20;;;;;;;30.36;32.08;101406.78;5106827;28;20531;-74
2021/06/17 09:11:28;;;;;;;2.05;1.30;;;;;;;30.20;32.97;101402.53;5087454;28;20604;-73
2021/06/17 09:14:14;;;;;;;1.20;1.20;;;;;;;30.49;30.72;101407.56;5101541;28;20218;-73
2021/06/17 09:16:56;;;;;;;1.92;1.25;;;;;;;31.02;31.16;101404.56;5098058;28;20224;-73
2021/06/17 09:19:53;;;;;;;1.30;1.17;;;;;;;31.18;30.99;101403.22;5104686;28;20199;-73
2021/06/17 09:22:23;;;;;;;1.40;1.20;;;;;;;31.80;29.65;101402.31;5107233;28;20216;-74
2021/06/17 09:24:54;;;;;;;2.13;1.10;;;;;;;31.84;28.13;101399.06;5093991;28;20203;-73
2021/06/17 09:27:39;;;;;;;2.75;1.20;;;;;;;31.60;29.59;101336.88;5106177;28;20598;-74
2021/06/17 09:30:19;;;;;;;2.00;1.13;;;;;;;32.26;30.46;101376.00;5106775;28;20196;-73
2021/06/17 09:32:49;;;;;;;1.45;1.10;;;;;;;32.82;29.98;101397.16;5107693;28;20195;-73
2021/06/17 09:35:19;;;;;;;1.30;1.20;;;;;;;32.79;28.92;101394.84;5107558;28;20667;-73
2021/06/17 09:37:48;;;;;;;2.35;1.30;;;;;;;33.03;29.32;101398.56;5106810;28;20959;-73
2021/06/17 09:40:26;;;;;;;1.25;1.17;;;;;;;32.36;27.89;101400.50;5100275;28;20279;-73
2021/06/17 09:43:13;;;;;;;2.47;1.20;;;;;;;31.85;29.25;101398.88;5103550;28;20192;-73
2021/06/17 09:45:42;;;;;;;1.92;1.10;;;;;;;31.72;30.35;101396.22;5100565;28;20608;-74
2021/06/17 09:48:32;;;;;;;3.75;1.58;;;;;;;31.81;30.16;101397.59;5100273;28;20694;-74
2021/06/17 09:51:07;;;;;;;1.00;1.00;;;;;;;31.47;28.73;101362.84;5106448;28;20582;-74
2021/06/17 09:53:35;;;;;;;1.27;1.17;;;;;;;31.86;29.90;101380.28;5100710;28;20683;-74
2021/06/17 09:56:05;;;;;;;0.90;0.90;;;;;;;31.92;28.93;101399.66;5107195;28;20188;-73
2021/06/17 09:58:38;;;;;;;2.05;1.02;;;;;;;32.17;28.27;101402.41;5106281;28;20274;-74
2021/06/17 10:01:12;;;;;;;0.88;0.88;;;;;;;32.12;28.76;101400.28;5098250;28;20219;-73
2021/06/17 10:03:41;;;;;;;1.10;1.00;;;;;;;32.28;28.75;101393.31;5102644;28;20199;-74
2021/06/17 10:06:19;;;;;;;1.15;1.05;;;;;;;31.99;27.52;101399.59;5101179;28;20228;-74
2021/06/17 10:08:47;;;;;;;1.02;0.90;;;;;;;31.99;26.86;101391.25;5106386;28;20212;-73
2021/06/17 10:11:17;;;;;;;0.90;0.90;;;;;;;31.80;28.20;101385.63;5092689;28;20204;-73
2021/06/17 10:13:45;;;;;;;2.05;1.00;;;;;;;31.91;28.36;101394.31;5108101;28;20460;-73
2021/06/17 10:16:17;;;;;;;1.58;1.02;;;;;;;31.75;28.34;101392.97;5106600;28;20232;-73
2021/06/17 10:18:46;;;;;;;1.45;0.90;;;;;;;31.60;28.71;101398.84;5094530;28;20265;-74
2021/06/17 10:21:17;;;;;;;1.48;1.00;;;;;;;31.83;29.11;101401.00;5098795;28;20208;-73
2021/06/17 10:23:49;;;;;;;0.93;0.93;;;;;;;31.52;28.24;101397.19;5087260;28;20204;-73
2021/06/17 10:26:21;;;;;;;1.15;0.90;;;;;;;31.80;29.49;101404.25;5100187;28;20678;-73
2021/06/17 10:28:51;;;;;;;1.10;1.10;;;;;;;31.71;29.51;101402.84;5086627;28;20258;-74
2021/06/17 10:31:45;;;;;;;1.92;1.00;;;;;;;31.16;28.16;101397.88;5103843;28;20199;-73
2021/06/17 10:34:34;;;;;;;1.02;1.00;;;;;;;31.07;27.67;101395.56;5107317;28;20202;-74
2021/06/17 10:37:14;;;;;;;0.95;0.90;;;;;;;31.23;27.80;101400.63;5106511;28;20196;-74
2021/06/17 10:39:44;;;;;;;1.75;0.93;;;;;;;31.53;29.10;101395.25;5106509;28;20559;-73
2021/06/17 10:42:16;;;;;;;1.95;1.08;;;;;;;31.15;27.67;101398.94;5106722;28;20196;-73
2021/06/17 10:44:51;;;;;;;1.50;1.00;;;;;;;31.45;28.99;101401.09;5107234;28;20199;-73
2021/06/17 10:48:04;;;;;;;0.88;0.88;;;;;;;31.59;28.43;101394.38;5106964;28;20294;-73
2021/06/17 10:50:53;;;;;;;1.15;1.05;;;;;;;31.04;26.87;101401.56;5103015;28;20662;-73
2021/06/17 10:53:51;;;;;;;1.05;0.90;;;;;;;31.44;28.53;101393.84;5109720;28;20207;-73
2021/06/17 10:56:21;;;;;;;1.70;0.95;;;;;;;31.20;27.34;101393.59;5103698;28;20207;-73
2021/06/17 10:59:01;;;;;;;0.80;0.80;;;;;;;30.80;26.98;101392.94;5109398;28;20229;-73
2021/06/17 11:01:42;;;;;;;2.05;1.00;;;;;;;30.91;27.85;101388.59;5098374;28;20224;-73
2021/06/17 11:04:22;;;;;;;2.00;1.00;;;;;;;31.54;27.31;101390.59;5104240;28;20636;-73
2021/06/17 11:07:15;;;;;;;1.35;0.85;;;;;;;31.23;27.34;101388.69;5102594;28;20201;-73
2021/06/17 11:09:49;;;;;;;1.75;1.10;;;;;;;30.67;27.00;101383.84;5106005;28;20245;-73
2021/06/17 11:12:49;;;;;;;0.77;0.77;;;;;;;30.29;26.61;101392.91;5095056;28;20208;-73
2021/06/17 11:15:52;;;;;;;2.22;1.00;;;;;;;30.93;28.86;101391.19;5110359;28;20661;-74
2021/06/17 11:18:57;;;;;;;1.00;0.90;;;;;;;31.46;27.59;101391.69;5087454;28;20666;-73
2021/06/17 11:21:45;;;;;;;1.10;1.00;;;;;;;31.00;27.03;101392.84;5072095;28;20215;-73
2021/06/17 11:24:31;;;;;;;1.48;1.02;;;;;;;30.96;27.31;101388.81;5103317;28;20208;-72
2021/06/17 11:26:59;;;;;;;1.40;1.20;;;;;;;30.78;28.55;101380.38;5099503;28;20200;-73
2021/06/17 11:29:57;;;;;;;3.95;0.90;;;;;;;30.75;27.38;101386.38;5109139;28;20228;-73
2021/06/17 11:32:29;;;;;;;0.90;0.90;;;;;;;30.48;28.79;101391.16;5109497;27;20203;-73
2021/06/17 11:34:58;;;;;;;1.35;1.15;;;;;;;30.58;29.14;101395.16;5109858;28;20829;-74
2021/06/17 11:37:31;;;;;;;3.40;1.38;;;;;;;30.91;29.27;101388.59;5101759;27;20689;-74
2021/06/17 11:40:00;;;;;;;2.38;1.00;;;;;;;30.72;28.94;101337.72;5106436;27;20215;-73
2021/06/17 11:42:29;;;;;;;2.05;1.00;;;;;;;31.09;29.28;101351.78;5103229;28;20193;-73
2021/06/17 11:45:03;;;;;;;4.05;1.08;;;;;;;30.95;27.87;101387.13;5104581;28;20700;-73
2021/06/17 11:47:32;;;;;;;1.42;1.10;;;;;;;31.18;28.53;101386.56;5102098;28;20237;-74